Time;durP1;ratioP1;P1;durP2;ratioP2;P2;SDS_P1;SDS_P2;PMS_P1;PMS_P2;Temp;Humidity;BMP_temperature;BMP_pressure;BME280_temperature;BME280_humidity;BME280_pressure;Samples;Min_cycle;Max_cycle;Signal;HPM_P1;HPM_P2
2023/01/28 00:00:52;;;;;;;4.18;2.00;;;1.20;99.90;;;0.67;100.00;98510.97;4962137;28;20564;-67
2023/01/28 00:03:19;;;;;;;4.28;2.70;;;1.20;99.90;;;0.57;100.00;98507.44;4974625;28;20592;-68
2023/01/28 00:05:46;;;;;;;4.30;2.45;;;1.30;99.90;;;0.70;100.00;98508.44;4946756;28;20046;-69
2023/01/28 00:08:13;;;;;;;4.88;3.00;;;1.30;99.90;;;0.68;100.00;98505.84;4964518;28;20043;-67
2023/01/28 00:10:41;;;;;;;6.95;3.15;;;1.30;99.90;;;0.76;100.00;98514.47;4964221;28;20729;-68
2023/01/28 00:13:15;;;;;;;4.25;2.90;;;1.30;99.90;;;0.79;100.00;98506.00;4964963;28;20047;-68
2023/01/28 00:15:42;;;;;;;8.35;5.28;;;1.30;99.90;;;0.71;100.00;98502.47;4958866;28;20147;-68
2023/01/28 00:18:09;;;;;;;5.55;3.92;;;1.30;99.90;;;0.81;100.00;98504.31;4961544;28;20051;-67
2023/01/28 00:20:36;;;;;;;11.00;6.63;;;1.30;99.90;;;0.61;100.00;98507.47;4962503;28;20049;-67
2023/01/28 00:23:03;;;;;;;11.48;7.93;;;1.20;99.90;;;0.48;100.00;98495.44;4945386;28;20497;-68
2023/01/28 00:25:30;;;;;;;13.05;7.93;;;1.10;99.90;;;0.56;100.00;98498.91;4962836;28;20051;-68
2023/01/28 00:27:57;;;;;;;7.63;5.22;;;1.20;99.90;;;0.62;100.00;98500.69;4947320;28;20049;-68
2023/01/28 00:30:24;;;;;;;12.10;7.80;;;1.20;99.90;;;0.56;100.00;98495.50;4962762;28;20046;-68
2023/01/28 00:32:54;;;;;;;12.10;7.28;;;1.20;99.90;;;0.53;100.00;98501.44;4962821;28;20483;-68
2023/01/28 00:35:21;;;;;;;12.25;7.90;;;1.10;99.90;;;0.51;100.00;98487.78;4966583;28;20061;-68
2023/01/28 00:37:48;;;;;;;12.20;7.85;;;1.10;99.90;;;0.57;100.00;98499.75;4947089;28;20047;-68
2023/01/28 00:40:16;;;;;;;12.02;7.30;;;1.20;99.90;;;0.63;100.00;98494.72;4961982;28;20056;-68
2023/01/28 00:42:42;;;;;;;12.68;6.50;;;1.20;99.90;;;0.58;100.00;98489.56;4947220;28;20046;-69
2023/01/28 00:45:10;;;;;;;12.77;7.25;;;1.20;99.90;;;0.73;100.00;98486.34;4959683;28;20659;-68
2023/01/28 00:47:37;;;;;;;8.77;6.03;;;1.20;99.90;;;0.59;100.00;98492.97;4944437;28;20129;-69
2023/01/28 00:50:05;;;;;;;11.02;6.90;;;1.20;99.90;;;0.59;100.00;98490.41;4957685;28;20039;-67
2023/01/28 00:52:32;;;;;;;11.32;7.57;;;1.20;99.90;;;0.52;100.00;98489.50;4961931;28;20054;-69
2023/01/28 00:55:02;;;;;;;12.50;7.57;;;1.10;99.90;;;0.48;100.00;98487.75;4965471;28;20134;-70
2023/01/28 00:57:29;;;;;;;14.65;8.50;;;1.10;99.90;;;0.48;100.00;98485.22;4967229;28;20416;-69
2023/01/28 00:59:56;;;;;;;9.45;5.78;;;1.10;99.90;;;0.55;100.00;98487.00;4961393;28;20497;-69
2023/01/28 01:02:23;;;;;;;14.38;8.55;;;1.20;99.90;;;0.43;100.00;98491.94;4955348;28;20049;-69
2023/01/28 01:04:59;;;;;;;9.63;6.50;;;1.10;99.90;;;0.47;100.00;98495.41;4954942;28;20740;-68
2023/01/28 01:07:45;;;;;;;13.88;7.72;;;1.10;99.90;;;0.47;100.00;98495.41;4963114;28;20409;-69
2023/01/28 01:10:18;;;;;;;9.98;6.75;;;1.20;99.90;;;0.56;100.00;98498.06;4958203;28;20374;-69
2023/01/28 01:12:47;;;;;;;14.27;8.20;;;1.20;99.90;;;0.54;100.00;98500.59;4937108;28;20149;-68
2023/01/28 01:15:15;;;;;;;12.43;7.43;;;1.20;99.90;;;0.52;100.00;98494.59;4956281;28;20057;-69
2023/01/28 01:17:47;;;;;;;10.63;7.07;;;1.20;99.90;;;0.51;100.00;98503.13;4962824;28;20055;-68
2023/01/28 01:20:21;;;;;;;10.38;6.25;;;1.10;99.90;;;0.51;100.00;98502.25;4958665;28;20150;-68
2023/01/28 01:22:48;;;;;;;15.40;8.35;;;1.20;99.90;;;0.48;100.00;98503.09;4946300;28;20043;-68
2023/01/28 01:25:17;;;;;;;10.68;6.55;;;1.10;99.90;;;0.60;100.00;98495.56;4956281;28;20051;-68
2023/01/28 01:27:48;;;;;;;10.52;6.10;;;1.20;99.90;;;0.71;100.00;98497.38;4959142;28;20043;-68
2023/01/28 01:30:16;;;;;;;12.25;7.07;;;1.20;99.90;;;0.56;100.00;98496.34;4944118;28;20074;-68
2023/01/28 01:32:43;;;;;;;10.30;6.60;;;1.20;99.90;;;0.65;100.00;98498.16;4944507;28;20054;-69
2023/01/28 01:35:10;;;;;;;12.35;7.10;;;1.20;99.90;;;0.56;100.00;98500.63;4961492;28;20153;-67
2023/01/28 01:37:37;;;;;;;10.40;6.28;;;1.20;99.90;;;0.54;100.00;98498.03;4946656;28;20064;-67
2023/01/28 01:40:05;;;;;;;10.10;6.15;;;1.20;99.90;;;0.55;100.00;98504.88;4947500;28;20047;-67
2023/01/28 01:42:35;;;;;;;10.50;6.03;;;1.20;99.90;;;0.62;100.00;98506.66;4964254;28;20156;-69
2023/01/28 01:45:16;;;;;;;10.63;6.85;;;1.20;99.90;;;0.48;100.00;98500.53;4958620;28;20130;-68
2023/01/28 01:48:12;;;;;;;11.13;7.70;;;1.10;99.90;;;0.53;100.00;98506.56;4948702;28;20522;-67
2023/01/28 01:50:53;;;;;;;9.27;5.97;;;1.10;99.90;;;0.46;100.00;98509.00;4948994;28;20403;-67
2023/01/28 01:53:24;;;;;;;11.70;6.68;;;1.10;99.90;;;0.57;100.00;98505.75;4945900;28;20130;-66
2023/01/28 01:55:56;;;;;;;10.13;5.68;;;1.20;99.90;;;0.57;100.00;98497.22;4979210;28;20047;-67
2023/01/28 01:58:33;;;;;;;10.07;6.28;;;1.20;99.90;;;0.59;100.00;98514.31;4964730;28;20079;-67
2023/01/28 02:01:02;;;;;;;;;;;1.20;99.90;;;0.51;100.00;98510.78;4945673;28;20047;-67
2023/01/28 02:04:08;;;;;;;12.68;6.78;;;1.10;99.90;;;0.53;100.00;98515.91;4961101;28;19933;-67
2023/01/28 02:06:36;;;;;;;8.55;5.10;;;1.10;99.90;;;0.47;100.00;98511.56;4949540;28;20047;-66
2023/01/28 02:09:22;;;;;;;12.18;7.60;;;1.10;99.90;;;0.50;100.00;98518.41;4945982;28;20413;-66
2023/01/28 02:11:53;;;;;;;9.45;6.45;;;1.10;99.90;;;0.55;100.00;98520.19;4957035;28;20047;-66
2023/01/28 02:14:22;;;;;;;7.47;5.00;;;1.20;99.90;;;0.56;100.00;98515.94;4963647;28;20070;-66
2023/01/28 02:16:59;;;;;;;9.05;4.85;;;1.20;99.90;;;0.64;100.00;98519.47;4975573;28;20118;-66
2023/01/28 02:19:37;;;;;;;8.88;6.22;;;1.20;99.90;;;0.38;100.00;98506.34;4962858;28;20055;-66
2023/01/28 02:22:38;;;;;;;9.98;6.47;;;1.10;99.90;;;0.51;100.00;98512.47;4963023;28;20053;-66
2023/01/28 02:25:38;;;;;;;9.52;5.75;;;1.10;99.90;;;0.48;100.00;98513.31;4947172;28;20066;-66
2023/01/28 02:28:41;;;;;;;8.30;4.80;;;1.10;99.90;;;0.55;100.00;98509.13;4932901;28;20048;-66
2023/01/28 02:31:50;;;;;;;8.90;4.68;;;1.10;99.90;;;0.67;100.00;98513.53;4976503;28;20047;-66
2023/01/28 02:34:34;;;;;;;12.48;6.57;;;1.20;99.90;;;0.54;100.00;98507.41;4960196;28;20046;-67
2023/01/28 02:37:39;;;;;;;8.82;5.85;;;1.10;99.90;;;0.65;100.00;98510.94;4945559;28;20158;-66
2023/01/28 02:40:28;;;;;;;9.90;6.03;;;1.20;99.90;;;0.57;100.00;98509.97;4959933;28;20415;-67
2023/01/28 02:42:56;;;;;;;8.25;4.68;;;1.20;99.90;;;0.65;100.00;98507.53;4948241;28;20077;-67
2023/01/28 02:48:21;;;;;;;8.88;5.35;;;1.30;99.90;;;0.79;100.00;98508.53;4947878;28;20054;-67
2023/01/28 02:51:34;;;;;;;9.80;5.25;;;1.30;99.90;;;0.78;100.00;98511.97;4977608;28;20053;-67
2023/01/28 02:54:56;;;;;;;8.68;5.38;;;1.30;99.90;;;0.78;100.00;98506.84;4935846;28;20065;-67
2023/01/28 02:58:05;;;;;;;9.77;4.85;;;1.40;99.90;;;0.67;100.00;98501.59;4933043;28;20506;-67
2023/01/28 03:01:13;;;;;;;8.98;5.10;;;1.30;99.90;;;0.80;100.00;98500.91;4945511;28;20046;-66
2023/01/28 03:04:04;;;;;;;11.38;5.72;;;1.30;99.90;;;0.76;100.00;98499.16;4954991;28;20058;-66
2023/01/28 03:06:54;;;;;;;11.18;6.30;;;1.40;99.90;;;0.79;100.00;98500.88;4972807;28;20505;-66
2023/01/28 03:09:23;;;;;;;7.95;5.38;;;1.30;99.90;;;0.76;100.00;98499.16;4948724;28;20055;-66
2023/01/28 03:38:21;;;;;;;7.50;4.53;;;1.30;99.90;;;0.61;100.00;98522.81;4949292;28;20130;-66
2023/01/28 03:41:01;;;;;;;10.43;4.65;;;1.20;99.90;;;0.64;100.00;98519.47;4949060;28;20512;-66
2023/01/28 03:43:30;;;;;;;8.85;5.32;;;1.20;99.90;;;0.62;100.00;98518.59;4959186;28;20047;-67
2023/01/28 03:45:57;;;;;;;8.07;4.60;;;1.20;99.90;;;0.73;100.00;98522.13;4963035;28;20043;-66
2023/01/28 03:48:26;;;;;;;11.20;5.95;;;1.30;99.90;;;0.57;100.00;98520.19;4961810;28;20154;-66
2023/01/28 03:50:59;;;;;;;5.90;3.60;;;1.20;99.90;;;0.59;100.00;98523.63;4976925;28;20042;-66
2023/01/28 03:53:27;;;;;;;6.30;4.25;;;1.20;99.90;;;0.47;100.00;98524.34;4960614;28;20055;-66
2023/01/28 03:55:55;;;;;;;6.22;3.40;;;1.10;99.90;;;0.67;100.00;98529.72;4958855;28;20078;-66
2023/01/28 03:58:25;;;;;;;7.10;4.03;;;1.20;99.90;;;0.63;100.00;98527.94;4947911;28;20463;-66
2023/01/28 04:00:53;;;;;;;6.07;4.15;;;1.20;99.90;;;0.62;100.00;98526.25;4946034;28;20062;-67
2023/01/28 04:03:21;;;;;;;7.35;3.85;;;1.20;99.90;;;0.64;100.00;98527.13;4961070;28;20055;-66
2023/01/28 04:06:03;;;;;;;8.45;4.03;;;1.20;99.90;;;0.77;100.00;98530.66;4961538;28;20060;-67
2023/01/28 04:08:30;;;;;;;5.93;3.60;;;1.30;99.90;;;0.65;100.00;98528.81;4960936;28;20043;-66
2023/01/28 04:10:59;;;;;;;5.55;3.55;;;1.30;99.90;;;0.63;100.00;98521.13;4960324;28;20437;-66
2023/01/28 04:13:26;;;;;;;7.22;4.25;;;1.40;99.90;;;0.68;100.00;98526.31;4962537;28;20134;-66
2023/01/28 04:15:52;;;;;;;6.53;3.92;;;1.30;99.90;;;0.73;100.00;98521.25;4963347;28;20051;-66
2023/01/28 04:18:26;;;;;;;7.93;4.70;;;1.30;99.90;;;0.74;100.00;98516.16;4963142;28;20110;-66
2023/01/28 04:20:53;;;;;;;17.95;6.10;;;1.30;99.90;;;0.64;100.00;98519.47;4960843;28;20093;-67
2023/01/28 04:23:19;;;;;;;7.35;4.15;;;1.20;99.90;;;0.62;100.00;98522.00;4962619;28;20053;-66
2023/01/28 04:25:50;;;;;;;10.35;6.35;;;1.20;99.90;;;0.45;100.00;98527.72;4961814;28;20576;-65
2023/01/28 04:28:17;;;;;;;8.15;5.18;;;1.10;99.90;;;0.43;100.00;98526.84;4960327;28;20053;-67
2023/01/28 04:30:44;;;;;;;8.05;4.88;;;1.10;99.90;;;0.47;100.00;98532.00;4940852;28;20046;-66
2023/01/28 04:33:11;;;;;;;7.78;4.70;;;1.10;99.90;;;0.44;100.00;98537.09;4965444;28;20059;-67
2023/01/28 04:35:39;;;;;;;7.50;3.78;;;1.10;99.90;;;0.62;100.00;98539.03;4943235;28;20137;-66
2023/01/28 04:38:06;;;;;;;10.38;4.78;;;1.10;99.90;;;0.44;100.00;98528.56;4959261;28;20047;-66
2023/01/28 04:40:33;;;;;;;7.50;4.47;;;1.00;99.90;;;0.38;100.00;98535.28;4959403;28;20062;-66
2023/01/28 04:43:00;;;;;;;7.88;4.60;;;1.00;99.90;;;0.46;100.00;98534.53;4954717;28;20051;-66
2023/01/28 04:45:27;;;;;;;7.85;4.35;;;1.00;99.90;;;0.56;100.00;98534.69;4946082;28;20054;-67
2023/01/28 04:47:54;;;;;;;9.25;4.38;;;1.10;99.90;;;0.45;100.00;98526.03;4944045;28;20067;-66
2023/01/28 04:50:21;;;;;;;6.72;4.20;;;1.10;99.90;;;0.45;100.00;98531.13;4963293;28;20516;-66
2023/01/28 04:52:48;;;;;;;5.82;3.70;;;1.00;99.90;;;0.38;100.00;98527.63;4975244;28;20073;-66
2023/01/28 04:55:15;;;;;;;6.88;4.53;;;1.00;99.90;;;0.44;100.00;98528.56;4959365;28;20058;-66
2023/01/28 04:57:43;;;;;;;8.15;4.88;;;1.00;99.90;;;0.52;100.00;98532.91;4972369;28;20402;-66
2023/01/28 05:00:10;;;;;;;6.63;3.60;;;1.00;99.90;;;0.54;100.00;98527.84;4958899;28;20433;-67
2023/01/28 05:02:37;;;;;;;5.95;2.95;;;1.00;99.90;;;0.46;100.00;98527.75;4958385;28;20047;-66
2023/01/28 05:05:07;;;;;;;6.70;3.63;;;1.10;99.90;;;0.39;100.00;98531.91;4942647;28;20066;-67
2023/01/28 05:07:35;;;;;;;8.55;3.92;;;1.00;99.90;;;0.38;100.00;98530.19;4959721;28;20059;-67
2023/01/28 05:10:04;;;;;;;8.25;4.13;;;0.90;99.90;;;0.28;100.00;98527.50;4962653;28;20498;-67
2023/01/28 05:12:32;;;;;;;7.80;3.83;;;0.90;99.90;;;0.36;100.00;98526.75;4947172;28;20046;-66
2023/01/28 05:15:00;;;;;;;5.47;3.30;;;0.90;99.90;;;0.39;100.00;98531.91;4948269;28;20071;-66
2023/01/28 05:17:28;;;;;;;4.57;3.17;;;0.90;99.90;;;0.36;100.00;98528.44;4959911;28;20047;-67
2023/01/28 05:19:55;;;;;;;5.47;2.55;;;0.90;99.90;;;0.43;100.00;98531.94;4961714;28;20047;-66
2023/01/28 05:22:22;;;;;;;4.68;3.05;;;1.00;99.90;;;0.37;100.00;98520.81;4959676;28;20054;-67
2023/01/28 05:24:49;;;;;;;4.50;2.85;;;1.00;99.90;;;0.33;100.00;98526.72;4958065;28;20137;-67
2023/01/28 05:27:16;;;;;;;5.93;3.17;;;0.90;99.90;;;0.24;100.00;98523.19;4959820;28;20043;-67
2023/01/28 05:29:43;;;;;;;5.53;3.20;;;0.90;99.90;;;0.35;100.00;98536.97;4957723;28;20055;-66
2023/01/28 05:32:10;;;;;;;6.32;3.50;;;0.90;99.90;;;0.28;100.00;98533.47;4958621;28;20130;-67
2023/01/28 05:34:37;;;;;;;5.72;2.80;;;0.90;99.90;;;0.26;100.00;98534.28;4957929;28;20421;-66
2023/01/28 05:37:04;;;;;;;4.97;2.45;;;0.90;99.90;;;0.24;100.00;98531.69;4941587;28;20046;-67
2023/01/28 05:39:31;;;;;;;5.68;2.72;;;0.90;99.90;;;0.31;100.00;98533.50;4958780;28;20493;-67
2023/01/28 05:41:57;;;;;;;6.43;2.88;;;0.90;99.90;;;0.36;100.00;98536.97;4961462;28;20070;-67
2023/01/28 05:44:28;;;;;;;5.40;3.00;;;0.90;99.90;;;0.32;100.00;98535.22;4962347;28;20050;-67
2023/01/28 05:46:55;;;;;;;5.30;2.83;;;0.90;99.90;;;0.28;100.00;98540.28;4965803;28;20102;-67
2023/01/28 05:49:22;;;;;;;5.15;3.08;;;0.90;99.90;;;0.22;100.00;98540.19;4962715;28;20142;-66
2023/01/28 05:51:49;;;;;;;5.25;3.00;;;0.90;99.90;;;0.28;100.00;98537.72;4963458;28;20446;-67
2023/01/28 05:54:16;;;;;;;5.70;3.40;;;0.90;99.90;;;0.28;100.00;98530.91;4962517;28;20061;-67
2023/01/28 05:56:43;;;;;;;5.68;2.92;;;0.90;99.90;;;0.25;100.00;98545.31;4962081;28;20518;-67
2023/01/28 05:59:11;;;;;;;6.55;3.60;;;0.80;99.90;;;0.27;100.00;98538.53;4963277;28;20066;-66
2023/01/28 06:01:38;;;;;;;9.05;3.20;;;0.80;99.90;;;0.29;100.00;98537.72;4965127;28;20501;-66
2023/01/28 06:04:05;;;;;;;4.75;3.17;;;0.80;99.90;;;0.26;100.00;98547.06;4965513;28;20043;-67
2023/01/28 06:06:32;;;;;;;5.65;2.90;;;0.80;99.90;;;0.31;100.00;98548.81;4965925;28;20050;-67
2023/01/28 06:09:02;;;;;;;7.18;3.80;;;0.90;99.90;;;0.39;100.00;98554.06;4964387;28;20483;-67
2023/01/28 06:11:33;;;;;;;6.60;3.50;;;0.90;99.90;;;0.30;100.00;98548.81;4947685;28;20387;-66
2023/01/28 06:14:00;;;;;;;5.95;3.10;;;0.80;99.90;;;0.40;100.00;98553.19;4961682;28;20051;-66
2023/01/28 06:16:27;;;;;;;5.18;3.08;;;0.90;99.90;;;0.33;100.00;98561.63;4979951;28;20450;-65
2023/01/28 06:18:54;;;;;;;5.63;3.03;;;0.90;99.90;;;0.34;100.00;98563.31;4946576;28;20082;-66
2023/01/28 06:21:20;;;;;;;5.43;3.00;;;0.90;99.90;;;0.28;100.00;98568.38;4963546;28;20130;-67
2023/01/28 06:23:47;;;;;;;5.75;3.35;;;0.90;99.90;;;0.28;100.00;98559.00;4951155;28;20072;-67
2023/01/28 06:26:14;;;;;;;8.68;3.67;;;0.90;99.90;;;0.27;100.00;98564.94;4965176;28;20141;-67
2023/01/28 06:28:41;;;;;;;5.97;3.28;;;0.90;99.90;;;0.27;100.00;98577.69;4963051;28;20042;-66
2023/01/28 06:31:08;;;;;;;5.10;2.92;;;0.90;99.90;;;0.27;100.00;98577.69;4962909;28;20071;-67
2023/01/28 06:33:35;;;;;;;7.45;4.28;;;0.90;99.90;;;0.27;100.00;98576.84;4964255;28;20055;-67
2023/01/28 06:36:05;;;;;;;4.63;2.80;;;0.90;99.90;;;0.26;100.00;98582.81;4963894;28;20051;-67
2023/01/28 06:38:33;;;;;;;6.57;3.20;;;0.90;99.90;;;0.32;100.00;98588.88;4964355;28;20521;-67
2023/01/28 06:41:00;;;;;;;5.57;3.25;;;0.90;99.90;;;0.20;100.00;98589.50;4947408;28;20043;-65
2023/01/28 06:43:29;;;;;;;5.00;2.75;;;0.90;99.90;;;0.34;100.00;98591.41;4946596;28;20051;-66
2023/01/28 06:45:57;;;;;;;5.85;2.97;;;0.90;99.90;;;0.28;100.00;98592.19;4957464;28;20106;-66
2023/01/28 06:48:24;;;;;;;5.57;2.80;;;0.90;99.90;;;0.25;100.00;98599.81;4949202;28;20135;-66
2023/01/28 06:50:52;;;;;;;6.50;3.10;;;0.90;99.90;;;0.15;100.00;98596.25;4962565;28;20053;-66
2023/01/28 06:53:19;;;;;;;4.40;2.60;;;0.80;99.90;;;0.14;100.00;98597.09;4949851;28;20059;-67
2023/01/28 06:55:47;;;;;;;5.35;2.42;;;0.90;99.90;;;0.18;100.00;98611.63;4961949;28;20054;-67
2023/01/28 06:58:14;;;;;;;4.75;2.42;;;0.80;99.90;;;0.28;100.00;98615.19;4961888;28;20430;-66
2023/01/28 07:00:40;;;;;;;5.00;2.75;;;0.90;99.90;;;0.18;100.00;98605.66;4962289;28;20078;-66
2023/01/28 07:03:08;;;;;;;5.20;2.63;;;0.80;99.90;;;0.19;100.00;98603.13;4962560;28;20051;-67
2023/01/28 07:05:35;;;;;;;4.95;3.03;;;0.80;99.90;;;0.13;100.00;98610.69;4964947;28;20042;-67
2023/01/28 07:08:02;;;;;;;5.20;3.15;;;0.80;99.90;;;0.13;100.00;98613.25;4963280;28;20042;-67
2023/01/28 07:10:29;;;;;;;5.63;2.83;;;0.80;99.90;;;0.28;100.00;98604.97;4960584;28;20113;-66
2023/01/28 07:12:56;;;;;;;5.47;3.28;;;0.80;99.90;;;0.13;100.00;98602.19;4948181;28;20146;-66
2023/01/28 07:15:23;;;;;;;3.47;2.00;;;0.80;99.90;;;0.17;100.00;98606.50;4962983;28;20062;-67
2023/01/28 07:17:50;;;;;;;4.57;2.58;;;0.80;99.90;;;0.07;100.00;98613.16;4964352;28;20413;-66
2023/01/28 07:20:17;;;;;;;5.30;2.90;;;0.80;99.90;;;0.11;100.00;98602.16;4959957;28;20059;-67
2023/01/28 07:22:45;;;;;;;3.65;2.20;;;0.80;99.90;;;0.20;100.00;98603.97;4976875;28;20059;-66
2023/01/28 07:25:13;;;;;;;5.03;2.67;;;0.80;99.90;;;0.15;100.00;98603.91;4952081;28;20061;-67
2023/01/28 07:27:51;;;;;;;4.25;2.53;;;0.80;99.90;;;0.13;100.00;98603.03;4965832;28;20050;-67
2023/01/28 07:30:20;;;;;;;3.80;2.33;;;0.80;99.90;;;0.08;100.00;98602.09;4976788;28;20698;-67
2023/01/28 07:32:53;;;;;;;4.80;2.38;;;0.80;99.90;;;0.10;100.00;98610.66;4941965;28;20165;-67
2023/01/28 07:35:20;;;;;;;4.03;2.20;;;0.80;99.90;;;0.15;100.00;98600.50;4980175;28;20058;-67
2023/01/28 07:37:55;;;;;;;3.20;2.20;;;0.80;99.90;;;0.20;100.00;98604.84;4964211;28;20043;-68
2023/01/28 07:40:27;;;;;;;3.90;2.20;;;0.80;99.90;;;0.26;100.00;98605.78;4976809;28;20135;-66
2023/01/28 07:42:55;;;;;;;4.95;2.00;;;0.90;99.90;;;0.25;100.00;98620.25;4951752;28;20142;-68
2023/01/28 07:45:24;;;;;;;3.92;2.05;;;0.90;99.90;;;0.33;100.00;98623.75;4946647;28;20054;-68
2023/01/28 07:48:00;;;;;;;4.25;2.40;;;1.00;99.90;;;0.20;100.00;98621.84;4959460;28;20074;-68
2023/01/28 07:50:29;;;;;;;3.78;2.25;;;0.90;99.90;;;0.27;100.00;98621.09;4950988;28;20785;-68
2023/01/28 07:52:57;;;;;;;3.75;1.92;;;1.00;99.90;;;0.33;100.00;98628.03;4960328;28;20047;-67
2023/01/28 07:55:25;;;;;;;4.43;2.33;;;1.00;99.90;;;0.35;100.00;98626.34;4951486;28;20063;-67
2023/01/28 07:57:59;;;;;;;4.97;2.25;;;1.00;99.90;;;0.30;100.00;98630.53;4959258;28;20055;-67
2023/01/28 08:00:29;;;;;;;4.95;1.80;;;0.90;99.90;;;0.33;100.00;98641.63;4960868;28;20057;-68
2023/01/28 08:03:02;;;;;;;4.90;1.92;;;0.90;99.90;;;0.30;100.00;98626.28;4959135;28;20370;-67
2023/01/28 08:05:50;;;;;;;4.10;2.15;;;1.00;99.90;;;0.43;100.00;98637.53;4946037;28;20457;-67
2023/01/28 08:08:18;;;;;;;3.88;2.10;;;1.00;99.90;;;0.42;100.00;98630.72;4946031;28;20050;-67
2023/01/28 08:10:45;;;;;;;3.97;1.98;;;1.10;99.90;;;0.38;100.00;98634.91;4961126;28;20457;-67
2023/01/28 08:13:17;;;;;;;4.28;2.17;;;1.00;99.90;;;0.47;100.00;98634.19;4945845;28;20074;-67
2023/01/28 08:15:45;;;;;;;4.53;2.33;;;1.10;99.90;;;0.45;100.00;98635.00;4958878;28;20059;-67
2023/01/28 08:18:14;;;;;;;5.05;2.00;;;1.10;99.90;;;0.35;100.00;98636.56;4930932;28;20087;-67
2023/01/28 08:20:46;;;;;;;4.18;2.17;;;1.10;99.90;;;0.45;100.00;98647.78;4962664;28;20426;-67
2023/01/28 08:23:17;;;;;;;4.25;2.38;;;1.10;99.90;;;0.31;100.00;98645.88;4960640;28;20090;-68
2023/01/28 08:25:45;;;;;;;5.63;2.15;;;1.00;99.90;;;0.40;100.00;98648.56;4950851;28;20072;-67
2023/01/28 08:28:14;;;;;;;5.32;1.88;;;1.10;99.90;;;0.45;100.00;98643.50;4949586;28;20057;-68
2023/01/28 08:30:42;;;;;;;3.97;2.05;;;1.20;99.90;;;0.62;100.00;98642.06;4946985;28;20154;-68
2023/01/28 08:33:11;;;;;;;3.80;1.92;;;1.30;99.90;;;0.65;100.00;98645.50;4947237;28;20502;-68
2023/01/28 08:35:39;;;;;;;5.63;2.45;;;1.30;99.90;;;0.63;100.00;98653.16;4974700;28;20145;-67
2023/01/28 08:38:07;;;;;;;3.90;2.10;;;1.30;99.90;;;0.60;100.00;98646.31;4943917;28;20485;-67
2023/01/28 08:40:36;;;;;;;4.93;2.38;;;1.40;99.90;;;0.51;100.00;98643.63;4961820;28;20051;-68
2023/01/28 08:43:03;;;;;;;4.03;1.75;;;1.30;99.90;;;0.62;100.00;98643.78;4944738;28;20077;-68
2023/01/28 08:45:31;;;;;;;3.70;1.80;;;1.30;99.90;;;0.81;100.00;98644.88;4960148;28;20051;-68
2023/01/28 08:48:04;;;;;;;4.25;1.83;;;1.40;99.90;;;0.69;100.00;98637.91;4974979;28;20460;-68
2023/01/28 08:50:37;;;;;;;5.60;1.98;;;1.40;99.90;;;0.65;100.00;98641.25;4961164;28;20053;-68
2023/01/28 08:53:15;;;;;;;5.00;2.55;;;1.50;99.90;;;0.56;100.00;98641.97;4946647;28;20058;-68
2023/01/28 08:55:42;;;;;;;3.42;2.20;;;1.40;99.90;;;0.68;100.00;98643.00;4958973;28;20049;-68
2023/01/28 08:58:13;;;;;;;3.60;1.88;;;1.50;99.90;;;0.75;100.00;98635.44;4944950;28;20056;-68
2023/01/28 09:00:41;;;;;;;7.53;2.00;;;1.50;99.90;;;0.84;100.00;98634.69;4958938;28;20146;-67
2023/01/28 09:03:08;;;;;;;4.05;2.00;;;1.60;99.90;;;0.73;100.00;98638.78;4945421;28;20047;-67
2023/01/28 09:05:36;;;;;;;4.45;2.05;;;1.60;99.90;;;0.64;100.00;98626.78;4947106;28;20070;-68
2023/01/28 09:08:07;;;;;;;6.32;1.77;;;1.50;99.90;;;0.89;100.00;98625.41;4958759;28;20053;-68
2023/01/28 09:10:40;;;;;;;3.92;1.90;;;1.70;99.90;;;0.93;100.00;98628.84;4957979;28;20152;-67
2023/01/28 09:13:09;;;;;;;2.85;1.48;;;1.80;99.90;;;1.00;100.00;98630.63;4973828;28;20145;-68
2023/01/28 09:15:37;;;;;;;4.15;1.67;;;1.90;99.90;;;1.11;100.00;98628.22;4957314;28;20053;-68
2023/01/28 09:18:05;;;;;;;3.25;1.63;;;1.90;99.90;;;1.05;100.00;98634.13;4974839;28;20321;-68
2023/01/28 09:20:32;;;;;;;3.03;1.90;;;1.90;99.90;;;0.88;100.00;98633.88;4944756;28;20152;-68
2023/01/28 09:23:00;;;;;;;5.13;2.00;;;1.80;99.90;;;0.89;100.00;98632.19;4963956;28;20047;-68
2023/01/28 09:25:28;;;;;;;4.43;2.25;;;1.70;99.90;;;0.83;100.00;98638.94;4960532;28;20134;-68
2023/01/28 09:27:56;;;;;;;3.97;2.35;;;1.60;99.90;;;0.78;100.00;98639.75;4960814;28;20043;-68
2023/01/28 09:30:24;;;;;;;4.70;2.17;;;1.60;99.90;;;0.86;100.00;98648.34;4943067;28;20051;-68
2023/01/28 09:32:57;;;;;;;4.07;2.40;;;1.70;99.90;;;0.77;100.00;98648.22;4959811;28;20054;-67
2023/01/28 09:35:24;;;;;;;5.07;1.70;;;1.60;99.90;;;0.88;100.00;98651.78;4943734;28;20058;-68
2023/01/28 09:37:57;;;;;;;4.97;2.72;;;1.70;99.90;;;0.92;100.00;98651.00;4957586;28;20351;-66
2023/01/28 09:40:41;;;;;;;4.95;2.30;;;1.70;99.90;;;0.84;100.00;98647.47;4968944;28;20051;-67
2023/01/28 09:43:53;;;;;;;5.03;1.77;;;1.70;99.90;;;0.91;100.00;98656.06;4956695;28;20051;-69
2023/01/28 09:46:31;;;;;;;3.63;1.92;;;1.80;99.90;;;0.72;100.00;98665.19;4939787;28;20098;-68
2023/01/28 09:49:35;;;;;;;6.07;3.55;;;1.70;99.90;;;0.60;100.00;98656.53;4958654;28;20061;-68
2023/01/28 09:52:03;;;;;;;5.00;2.50;;;1.50;99.90;;;0.69;100.00;98662.59;4940721;28;20054;-67
2023/01/28 09:54:41;;;;;;;4.13;2.50;;;1.60;99.90;;;0.77;100.00;98663.56;4947076;28;20050;-67
2023/01/28 09:57:36;;;;;;;5.53;2.10;;;1.60;99.90;;;0.80;100.00;98671.28;4947292;28;20430;-68
2023/01/28 10:00:18;;;;;;;7.25;4.65;;;1.70;99.90;;;0.82;100.00;98665.34;4959251;28;20135;-68
2023/01/28 10:02:46;;;;;;;6.60;2.70;;;1.60;99.90;;;0.92;100.00;98661.22;4946800;28;20389;-68
2023/01/28 10:05:45;;;;;;;5.13;2.10;;;1.70;99.90;;;0.97;100.00;98656.16;4973153;28;20446;-68
2023/01/28 10:08:18;;;;;;;4.63;2.97;;;1.70;99.90;;;0.63;100.00;98659.09;4929533;28;20062;-69
2023/01/28 10:11:42;;;;;;;4.88;2.70;;;1.50;99.90;;;0.86;100.00;98670.50;4957304;28;20051;-68
2023/01/28 10:14:55;;;;;;;5.35;2.25;;;1.60;99.90;;;0.81;100.00;98661.06;4958332;28;20111;-68
2023/01/28 10:17:31;;;;;;;5.63;2.70;;;1.80;99.90;;;0.92;100.00;98673.16;4974806;28;20050;-69
2023/01/28 10:20:18;;;;;;;3.42;1.95;;;1.80;99.90;;;0.83;100.00;98674.72;4942362;28;20525;-67
2023/01/28 10:22:55;;;;;;;6.40;2.83;;;1.80;99.90;;;0.88;100.00;98673.94;4955150;28;20057;-68
2023/01/28 10:25:29;;;;;;;5.18;2.60;;;1.70;99.90;;;0.77;100.00;98668.66;4951855;28;20057;-67
2023/01/28 10:27:56;;;;;;;6.25;3.13;;;1.60;99.90;;;0.77;100.00;98671.22;4943968;28;20049;-68
2023/01/28 10:30:27;;;;;;;5.30;2.63;;;1.70;99.90;;;0.88;100.00;98676.50;4956312;28;20430;-69
2023/01/28 10:33:35;;;;;;;4.05;2.05;;;1.70;99.90;;;0.86;100.00;98679.03;4958453;28;20079;-68
2023/01/28 10:36:03;;;;;;;5.47;2.42;;;1.70;99.90;;;0.78;100.00;98678.94;4885507;29;20109;-67
2023/01/28 10:38:30;;;;;;;4.47;2.35;;;1.60;99.90;;;0.86;100.00;98675.59;4948437;28;20830;-69
2023/01/28 10:41:02;;;;;;;5.00;2.38;;;1.70;99.90;;;0.92;100.00;98673.16;4947824;28;20138;-67
2023/01/28 10:43:37;;;;;;;4.75;2.50;;;1.60;99.90;;;0.71;100.00;98679.69;4945312;28;20058;-66
2023/01/28 10:46:12;;;;;;;5.07;2.88;;;1.60;99.90;;;0.74;100.00;98674.59;4978211;28;20562;-67
2023/01/28 10:48:55;;;;;;;3.70;2.38;;;1.60;99.90;;;0.82;100.00;98670.47;4949028;28;20047;-67
2023/01/28 10:51:41;;;;;;;6.18;2.55;;;1.60;99.90;;;0.80;100.00;98679.81;4961342;28;20047;-68
2023/01/28 10:54:26;;;;;;;6.78;3.00;;;1.60;99.90;;;0.78;100.00;98675.50;4947040;28;20059;-67
2023/01/28 10:57:00;;;;;;;4.95;3.00;;;1.70;99.90;;;0.61;100.00;98682.91;4961162;28;20064;-67
2023/01/28 10:59:35;;;;;;;4.00;2.33;;;1.50;99.90;;;0.77;100.00;98684.84;4959103;28;20135;-67
2023/01/28 11:02:21;;;;;;;4.57;2.85;;;1.70;99.90;;;0.84;100.00;98693.47;4960918;28;20137;-67
2023/01/28 11:05:21;;;;;;;5.15;2.80;;;1.70;99.90;;;0.94;100.00;98694.47;4976825;28;20062;-68
2023/01/28 11:07:48;;;;;;;5.60;3.05;;;1.80;99.90;;;0.88;100.00;98687.56;4958101;28;20052;-67
2023/01/28 11:10:32;;;;;;;5.78;2.95;;;1.70;99.90;;;0.87;100.00;98690.09;4959446;28;20584;-68
2023/01/28 11:13:03;;;;;;;4.85;2.40;;;1.70;99.90;;;0.85;100.00;98684.13;4963289;28;20134;-68
2023/01/28 11:15:32;;;;;;;5.85;2.40;;;1.70;99.90;;;0.87;100.00;98679.88;4961615;28;20066;-68
2023/01/28 11:18:06;;;;;;;6.88;2.65;;;1.70;99.90;;;0.80;100.00;98686.63;4960710;28;20057;-67